Time;durP1;ratioP1;P1;durP2;ratioP2;P2;SDS_P1;SDS_P2;PMS_P1;PMS_P2;Temp;Humidity;BMP_temperature;BMP_pressure;BME280_temperature;BME280_humidity;BME280_pressure;Samples;Min_cycle;Max_cycle;Signal;HPM_P1;HPM_P2
2023/01/31 00:01:09;;;;;;;4.15;1.77;;;;;;;;;;5004559;28;20038;-49
2023/01/31 00:03:35;;;;;;;2.58;1.90;;;;;;;;;;5004380;28;20521;-45
2023/01/31 00:06:13;;;;;;;2.55;1.88;;;;;;;;;;5005634;28;20022;-47
2023/01/31 00:08:38;;;;;;;1.90;1.73;;;;;;;;;;5005306;28;20388;-49
2023/01/31 00:11:04;;;;;;;2.15;1.60;;;;;;;;;;5003070;28;20132;-45
2023/01/31 00:13:29;;;;;;;1.95;1.85;;;;;;;;;;5005066;28;20048;-49
2023/01/31 00:15:56;;;;;;;1.65;1.50;;;;;;;;;;5005437;28;20041;-45
2023/01/31 00:18:21;;;;;;;2.65;2.30;;;;;;;;;;5005628;28;20494;-49
2023/01/31 00:20:46;;;;;;;1.30;1.20;;;;;;;;;;5004086;28;20044;-48
2023/01/31 00:23:12;;;;;;;1.77;1.50;;;;;;;;;;5007752;28;20049;-47
2023/01/31 00:25:37;;;;;;;3.53;1.52;;;;;;;;;;5003641;28;20044;-51
2023/01/31 00:28:03;;;;;;;1.60;1.48;;;;;;;;;;5003587;28;20042;-50
2023/01/31 00:30:28;;;;;;;1.58;1.27;;;;;;;;;;5002291;28;20041;-49
2023/01/31 00:32:53;;;;;;;1.05;0.90;;;;;;;;;;5006489;28;20045;-47
2023/01/31 00:35:19;;;;;;;2.03;1.45;;;;;;;;;;5003557;28;20034;-48
2023/01/31 00:37:44;;;;;;;2.72;1.33;;;;;;;;;;5001774;28;20105;-51
2023/01/31 00:40:10;;;;;;;1.40;1.30;;;;;;;;;;5005503;28;20029;-52
2023/01/31 00:42:36;;;;;;;1.55;1.45;;;;;;;;;;5006940;28;20050;-47
2023/01/31 00:45:01;;;;;;;4.68;1.77;;;;;;;;;;5005521;28;20027;-50
2023/01/31 00:47:27;;;;;;;5.95;2.20;;;;;;;;;;5003080;28;20466;-48
2023/01/31 00:49:52;;;;;;;1.60;1.27;;;;;;;;;;5003413;28;20037;-48
2023/01/31 00:52:18;;;;;;;1.40;1.30;;;;;;;;;;5003833;28;20026;-47
2023/01/31 00:54:43;;;;;;;1.25;1.25;;;;;;;;;;5003570;28;20025;-47
2023/01/31 00:57:08;;;;;;;1.50;1.40;;;;;;;;;;5006393;28;20357;-53
2023/01/31 00:59:34;;;;;;;1.33;1.23;;;;;;;;;;5003947;28;20093;-49
2023/01/31 01:01:59;;;;;;;3.90;1.40;;;;;;;;;;5005283;28;20022;-47
2023/01/31 01:04:24;;;;;;;1.00;1.00;;;;;;;;;;5005776;28;20053;-45
2023/01/31 01:06:50;;;;;;;1.20;1.10;;;;;;;;;;5003847;28;20030;-49
2023/01/31 01:09:16;;;;;;;1.20;1.10;;;;;;;;;;5003988;28;20054;-49
2023/01/31 01:11:41;;;;;;;3.00;2.03;;;;;;;;;;5003175;28;20038;-51
2023/01/31 01:14:07;;;;;;;1.95;1.60;;;;;;;;;;5004985;28;20049;-49
2023/01/31 01:16:35;;;;;;;1.45;1.30;;;;;;;;;;5005463;28;20123;-52
2023/01/31 01:19:02;;;;;;;4.28;2.47;;;;;;;;;;5006481;28;20034;-53
2023/01/31 01:21:29;;;;;;;6.68;1.40;;;;;;;;;;5004155;28;20030;-52
2023/01/31 01:23:57;;;;;;;1.30;1.20;;;;;;;;;;5005379;28;20046;-46
2023/01/31 01:26:25;;;;;;;9.35;1.55;;;;;;;;;;5002047;28;20033;-49
2023/01/31 01:28:51;;;;;;;1.52;1.42;;;;;;;;;;5003401;28;20041;-51
2023/01/31 01:31:18;;;;;;;1.33;1.23;;;;;;;;;;5006515;28;20084;-49
2023/01/31 01:33:44;;;;;;;2.70;1.40;;;;;;;;;;5002131;28;20046;-46
2023/01/31 01:36:16;;;;;;;1.98;1.50;;;;;;;;;;5005832;28;20503;-48
2023/01/31 01:38:42;;;;;;;1.35;1.25;;;;;;;;;;5004634;28;20430;-48
2023/01/31 01:41:09;;;;;;;2.08;1.58;;;;;;;;;;5004408;28;20041;-51
2023/01/31 01:43:46;;;;;;;1.83;1.65;;;;;;;;;;5009887;28;20037;-48
2023/01/31 01:46:39;;;;;;;1.60;1.50;;;;;;;;;;5008053;28;20038;-47
2023/01/31 01:49:30;;;;;;;1.70;1.60;;;;;;;;;;5005642;28;20085;-45
2023/01/31 01:51:58;;;;;;;1.80;1.70;;;;;;;;;;5021566;28;20030;-45
2023/01/31 01:54:34;;;;;;;1.50;1.40;;;;;;;;;;5009308;28;20034;-50
2023/01/31 01:57:03;;;;;;;1.55;1.45;;;;;;;;;;5007854;28;20072;-45
2023/01/31 01:59:36;;;;;;;1.73;1.50;;;;;;;;;;5008359;28;20048;-47
2023/01/31 02:02:02;;;;;;;2.72;1.80;;;;;;;;;;5005655;28;20026;-48
2023/01/31 02:04:33;;;;;;;1.30;1.20;;;;;;;;;;5008753;28;20088;-46
2023/01/31 02:06:59;;;;;;;1.25;1.25;;;;;;;;;;5007567;28;20033;-51
2023/01/31 02:09:51;;;;;;;2.55;1.92;;;;;;;;;;5006640;28;20062;-51
2023/01/31 02:12:17;;;;;;;2.47;1.70;;;;;;;;;;5008702;28;20084;-53
2023/01/31 02:14:45;;;;;;;1.52;1.42;;;;;;;;;;5008682;28;20034;-54
2023/01/31 02:17:16;;;;;;;1.48;1.33;;;;;;;;;;5008524;28;20037;-50
2023/01/31 02:20:04;;;;;;;2.10;1.38;;;;;;;;;;5006811;28;20050;-46
2023/01/31 02:22:43;;;;;;;1.70;1.48;;;;;;;;;;5002689;28;20541;-49
2023/01/31 02:25:23;;;;;;;1.45;1.35;;;;;;;;;;5008341;28;20026;-45
2023/01/31 02:28:30;;;;;;;1.88;1.77;;;;;;;;;;5005995;28;20042;-48
2023/01/31 02:31:03;;;;;;;1.63;1.52;;;;;;;;;;5006755;28;20026;-47
2023/01/31 02:33:37;;;;;;;1.63;1.52;;;;;;;;;;5008400;28;20161;-50
2023/01/31 02:36:17;;;;;;;2.47;2.05;;;;;;;;;;5006766;28;20497;-46
2023/01/31 02:38:57;;;;;;;1.85;1.75;;;;;;;;;;5006756;28;20046;-48
2023/01/31 02:41:38;;;;;;;1.92;1.83;;;;;;;;;;5009196;28;20109;-47
2023/01/31 02:47:40;;;;;;;4.20;1.50;;;;;;;;;;5006598;28;20045;-47
2023/01/31 02:50:11;;;;;;;2.25;1.83;;;;;;;;;;5004913;28;20038;-48
2023/01/31 02:52:51;;;;;;;2.20;2.03;;;;;;;;;;5006922;28;20504;-45
2023/01/31 02:58:27;;;;;;;1.92;1.83;;;;;;;;;;5006337;28;20446;-50
2023/01/31 03:00:56;;;;;;;1.73;1.63;;;;;;;;;;5006695;28;20034;-48
2023/01/31 03:03:26;;;;;;;1.63;1.52;;;;;;;;;;5006788;28;20038;-48
2023/01/31 03:06:22;;;;;;;1.48;1.38;;;;;;;;;;5008502;28;21817;-53
2023/01/31 03:08:58;;;;;;;1.90;1.80;;;;;;;;;;5002477;28;20058;-48
2023/01/31 03:11:35;;;;;;;3.17;1.70;;;;;;;;;;5007403;28;20030;-47
2023/01/31 03:14:16;;;;;;;6.20;1.95;;;;;;;;;;5008422;28;20100;-45
2023/01/31 03:20:34;;;;;;;3.00;1.83;;;;;;;;;;5007109;28;20119;-48
2023/01/31 03:23:23;;;;;;;1.58;1.48;;;;;;;;;;5003408;28;20100;-47
2023/01/31 03:25:50;;;;;;;2.03;1.92;;;;;;;;;;5003036;28;20034;-48
2023/01/31 03:28:20;;;;;;;2.13;1.88;;;;;;;;;;5005502;28;20507;-46
2023/01/31 03:31:04;;;;;;;2.60;2.40;;;;;;;;;;5006778;28;20037;-48
2023/01/31 03:33:35;;;;;;;3.95;2.08;;;;;;;;;;5007596;28;20049;-47
2023/01/31 03:36:05;;;;;;;2.05;1.95;;;;;;;;;;5007362;28;20494;-48
2023/01/31 03:38:35;;;;;;;2.28;1.90;;;;;;;;;;5004627;28;20042;-46
2023/01/31 03:41:09;;;;;;;2.20;2.10;;;;;;;;;;5008398;28;20391;-49
2023/01/31 03:43:57;;;;;;;3.50;2.10;;;;;;;;;;5005779;28;20454;-47
2023/01/31 03:46:29;;;;;;;1.85;1.75;;;;;;;;;;5006456;28;20030;-48
2023/01/31 03:48:56;;;;;;;2.42;1.98;;;;;;;;;;5004729;28;20038;-49
2023/01/31 03:51:26;;;;;;;2.20;2.00;;;;;;;;;;5004987;28;20033;-48
2023/01/31 03:53:56;;;;;;;2.40;2.10;;;;;;;;;;5007853;28;20041;-50
2023/01/31 03:56:31;;;;;;;1.85;1.75;;;;;;;;;;5004038;28;20018;-51
2023/01/31 03:59:01;;;;;;;4.85;2.30;;;;;;;;;;5003686;28;20531;-48
2023/01/31 04:01:30;;;;;;;2.08;1.98;;;;;;;;;;5006767;28;20456;-52
2023/01/31 04:04:13;;;;;;;1.60;1.50;;;;;;;;;;5008463;28;20038;-48
2023/01/31 04:06:39;;;;;;;2.25;1.90;;;;;;;;;;5006867;28;20033;-51
2023/01/31 04:09:05;;;;;;;3.90;2.20;;;;;;;;;;5005360;28;20050;-50
2023/01/31 04:11:37;;;;;;;3.22;2.50;;;;;;;;;;5007495;28;20053;-47
2023/01/31 04:14:02;;;;;;;2.40;2.20;;;;;;;;;;5002106;28;20121;-51
2023/01/31 04:16:27;;;;;;;2.70;2.03;;;;;;;;;;5004389;28;20061;-50
2023/01/31 04:18:55;;;;;;;2.40;2.25;;;;;;;;;;5004182;28;20518;-46
2023/01/31 04:21:21;;;;;;;1.83;1.67;;;;;;;;;;5007410;28;20041;-47
2023/01/31 04:23:46;;;;;;;2.70;2.20;;;;;;;;;;5004888;28;20046;-46
2023/01/31 04:26:11;;;;;;;2.33;2.13;;;;;;;;;;5008099;28;20379;-47
2023/01/31 04:28:37;;;;;;;2.50;2.30;;;;;;;;;;5002822;28;20501;-46
2023/01/31 04:31:02;;;;;;;2.95;2.30;;;;;;;;;;5002152;28;20026;-46
2023/01/31 04:33:28;;;;;;;2.92;2.10;;;;;;;;;;5002855;28;20049;-50
2023/01/31 04:35:53;;;;;;;2.38;2.20;;;;;;;;;;5006393;28;20041;-48
2023/01/31 04:38:19;;;;;;;4.70;2.60;;;;;;;;;;5005195;28;20058;-46
2023/01/31 04:40:44;;;;;;;4.70;2.33;;;;;;;;;;5004152;28;20045;-47
2023/01/31 04:43:11;;;;;;;3.45;2.38;;;;;;;;;;5003457;28;20041;-51
2023/01/31 04:45:36;;;;;;;4.88;2.45;;;;;;;;;;5007020;28;20157;-53
2023/01/31 04:48:02;;;;;;;3.22;2.60;;;;;;;;;;5004020;28;20117;-49
2023/01/31 04:50:28;;;;;;;2.75;2.50;;;;;;;;;;5005805;28;20034;-52
2023/01/31 04:52:54;;;;;;;3.15;2.70;;;;;;;;;;5006048;28;20046;-48
2023/01/31 04:55:20;;;;;;;2.35;2.15;;;;;;;;;;5004283;28;20018;-52
2023/01/31 04:57:46;;;;;;;3.80;2.72;;;;;;;;;;5004676;28;20403;-49
2023/01/31 05:00:12;;;;;;;3.53;2.38;;;;;;;;;;5001209;28;20031;-47
2023/01/31 05:02:37;;;;;;;3.97;2.83;;;;;;;;;;5005946;28;20042;-51
2023/01/31 05:05:05;;;;;;;3.45;2.65;;;;;;;;;;5005141;28;20040;-48
2023/01/31 05:07:30;;;;;;;2.55;2.10;;;;;;;;;;5004894;28;20100;-50
2023/01/31 05:09:56;;;;;;;2.60;2.40;;;;;;;;;;5003404;28;22150;-49
2023/01/31 05:12:21;;;;;;;4.30;2.58;;;;;;;;;;5001944;28;20033;-48
2023/01/31 05:14:46;;;;;;;2.70;2.50;;;;;;;;;;5003737;28;20426;-49
2023/01/31 05:17:12;;;;;;;2.80;2.53;;;;;;;;;;5003344;28;20054;-47
2023/01/31 05:19:37;;;;;;;3.15;2.85;;;;;;;;;;4999942;28;20490;-46
2023/01/31 05:22:03;;;;;;;2.70;2.50;;;;;;;;;;5002534;28;20025;-48
2023/01/31 05:24:30;;;;;;;3.65;2.80;;;;;;;;;;4999034;28;20088;-46
2023/01/31 05:26:58;;;;;;;2.65;2.45;;;;;;;;;;5006639;28;20040;-46
2023/01/31 05:29:25;;;;;;;3.53;2.53;;;;;;;;;;4998926;28;20038;-53
2023/01/31 05:31:55;;;;;;;3.85;2.70;;;;;;;;;;5005363;28;20030;-51
2023/01/31 05:34:21;;;;;;;2.47;2.20;;;;;;;;;;5004721;28;20469;-50
2023/01/31 05:36:47;;;;;;;3.05;2.40;;;;;;;;;;5005222;28;20030;-46
2023/01/31 05:39:12;;;;;;;5.05;2.55;;;;;;;;;;5003421;28;20038;-47
2023/01/31 05:41:37;;;;;;;2.53;2.33;;;;;;;;;;5004699;28;20022;-52
2023/01/31 05:44:03;;;;;;;2.88;2.50;;;;;;;;;;5004062;28;20096;-49
2023/01/31 05:46:28;;;;;;;2.50;2.30;;;;;;;;;;5004447;28;20022;-46
2023/01/31 05:48:54;;;;;;;2.78;2.30;;;;;;;;;;5005165;28;20487;-51
2023/01/31 05:51:19;;;;;;;3.15;2.53;;;;;;;;;;5006162;28;20037;-47
2023/01/31 05:53:46;;;;;;;2.90;2.60;;;;;;;;;;5002853;28;20053;-49
2023/01/31 05:56:12;;;;;;;6.68;2.53;;;;;;;;;;5003823;28;20034;-47
2023/01/31 05:58:38;;;;;;;2.70;2.50;;;;;;;;;;5005768;28;20042;-49
2023/01/31 06:01:03;;;;;;;4.18;2.72;;;;;;;;;;5004390;28;20037;-45
2023/01/31 06:03:29;;;;;;;3.00;2.50;;;;;;;;;;4997899;28;20138;-48
2023/01/31 06:05:54;;;;;;;3.85;2.60;;;;;;;;;;5005866;28;20038;-46
2023/01/31 06:08:20;;;;;;;4.38;2.50;;;;;;;;;;5002682;28;20049;-49
2023/01/31 06:10:45;;;;;;;2.58;2.38;;;;;;;;;;5018941;28;20038;-48
2023/01/31 06:13:10;;;;;;;6.95;2.65;;;;;;;;;;5002830;28;20511;-49
2023/01/31 06:15:36;;;;;;;2.92;2.72;;;;;;;;;;5005058;28;20064;-48
2023/01/31 06:18:02;;;;;;;3.28;2.15;;;;;;;;;;5000253;28;20095;-45
2023/01/31 06:20:28;;;;;;;3.97;2.42;;;;;;;;;;5002482;28;20030;-45
2023/01/31 06:22:54;;;;;;;3.67;2.50;;;;;;;;;;5002671;28;20519;-47
2023/01/31 06:25:19;;;;;;;6.63;2.95;;;;;;;;;;5002392;28;20045;-48
2023/01/31 06:27:44;;;;;;;8.15;2.83;;;;;;;;;;5002932;28;20080;-51
2023/01/31 06:30:10;;;;;;;3.33;2.50;;;;;;;;;;5005481;28;20706;-50
2023/01/31 06:32:36;;;;;;;8.20;2.72;;;;;;;;;;5007136;28;20521;-48
2023/01/31 06:35:02;;;;;;;3.15;2.78;;;;;;;;;;5004880;28;20022;-53
2023/01/31 06:37:28;;;;;;;2.83;2.60;;;;;;;;;;5004885;28;20021;-48
2023/01/31 06:39:53;;;;;;;5.78;3.45;;;;;;;;;;5005256;28;20463;-47
2023/01/31 06:42:19;;;;;;;3.10;2.53;;;;;;;;;;5007239;28;20071;-46
2023/01/31 06:44:44;;;;;;;3.58;2.63;;;;;;;;;;5005559;28;20478;-46
2023/01/31 06:47:11;;;;;;;2.88;2.50;;;;;;;;;;5007618;28;20030;-46
2023/01/31 06:49:37;;;;;;;6.55;3.00;;;;;;;;;;5006022;28;20507;-47
2023/01/31 06:52:03;;;;;;;3.13;2.83;;;;;;;;;;4999910;28;20164;-49
2023/01/31 06:54:28;;;;;;;3.38;2.55;;;;;;;;;;5003110;28;20502;-47
2023/01/31 06:56:53;;;;;;;3.70;2.72;;;;;;;;;;5005935;28;20116;-51
2023/01/31 06:59:19;;;;;;;2.90;2.70;;;;;;;;;;5004681;28;20046;-49
2023/01/31 07:01:44;;;;;;;3.05;2.85;;;;;;;;;;5008278;28;20041;-51
2023/01/31 07:04:09;;;;;;;4.80;3.95;;;;;;;;;;5005195;28;20445;-45
2023/01/31 07:06:35;;;;;;;4.30;3.90;;;;;;;;;;5006949;28;20030;-47
2023/01/31 07:09:00;;;;;;;4.90;3.58;;;;;;;;;;5003480;28;20077;-52
2023/01/31 07:11:25;;;;;;;6.97;4.10;;;;;;;;;;4999208;28;20037;-47
2023/01/31 07:13:52;;;;;;;5.35;4.28;;;;;;;;;;5005263;28;20088;-50
2023/01/31 07:16:18;;;;;;;5.65;4.18;;;;;;;;;;4999406;28;20372;-49
2023/01/31 07:18:44;;;;;;;5.85;3.90;;;;;;;;;;5003704;28;20034;-50
2023/01/31 07:21:09;;;;;;;5.28;3.85;;;;;;;;;;5003244;28;20095;-50
2023/01/31 07:23:35;;;;;;;7.90;4.50;;;;;;;;;;5006950;28;20564;-48
2023/01/31 07:26:03;;;;;;;6.15;3.97;;;;;;;;;;5003443;28;20034;-49
2023/01/31 07:28:28;;;;;;;7.78;4.03;;;;;;;;;;5002700;28;20049;-47
2023/01/31 07:30:53;;;;;;;10.38;3.97;;;;;;;;;;5007202;28;20037;-50
2023/01/31 07:33:19;;;;;;;12.63;4.53;;;;;;;;;;5007639;28;20745;-48
2023/01/31 07:35:44;;;;;;;11.90;5.47;;;;;;;;;;5005732;28;20033;-48
2023/01/31 07:38:10;;;;;;;9.32;4.85;;;;;;;;;;5006149;28;20049;-47
2023/01/31 07:40:35;;;;;;;5.68;4.57;;;;;;;;;;5005742;28;20080;-51
2023/01/31 07:43:00;;;;;;;5.90;4.55;;;;;;;;;;5003976;28;20076;-48
2023/01/31 07:45:26;;;;;;;6.55;4.88;;;;;;;;;;5003945;28;20084;-46
2023/01/31 07:47:52;;;;;;;10.23;5.65;;;;;;;;;;5003133;28;20046;-46
2023/01/31 07:50:18;;;;;;;6.88;4.80;;;;;;;;;;5006044;28;20037;-51
2023/01/31 07:52:43;;;;;;;8.57;4.90;;;;;;;;;;5004903;28;20115;-52
2023/01/31 07:55:09;;;;;;;8.75;4.85;;;;;;;;;;5005508;28;20474;-48
2023/01/31 07:57:34;;;;;;;7.82;5.72;;;;;;;;;;5002722;28;20073;-48
2023/01/31 08:00:00;;;;;;;7.90;4.88;;;;;;;;;;5006253;28;20387;-46
2023/01/31 08:05:10;;;;;;;6.43;3.88;;;;;;;;;;5003900;28;20095;-49
2023/01/31 08:07:36;;;;;;;5.85;4.25;;;;;;;;;;5005068;28;20487;-52
2023/01/31 08:10:01;;;;;;;6.50;4.50;;;;;;;;;;5005919;28;20400;-50
2023/01/31 08:12:26;;;;;;;5.05;4.20;;;;;;;;;;5005986;28;20391;-47
2023/01/31 08:14:52;;;;;;;6.20;4.70;;;;;;;;;;5004791;28;20073;-48
2023/01/31 08:17:17;;;;;;;11.45;6.13;;;;;;;;;;5006233;28;20070;-47
2023/01/31 08:19:42;;;;;;;10.32;6.35;;;;;;;;;;5005298;28;20026;-46
2023/01/31 08:22:08;;;;;;;9.50;5.60;;;;;;;;;;5007584;28;20024;-48
2023/01/31 08:24:33;;;;;;;12.43;6.75;;;;;;;;;;5005931;28;20107;-48
2023/01/31 08:26:59;;;;;;;10.85;5.90;;;;;;;;;;4997783;28;20057;-51
2023/01/31 08:29:25;;;;;;;10.40;7.75;;;;;;;;;;5002576;28;20474;-50
2023/01/31 08:31:50;;;;;;;8.75;6.70;;;;;;;;;;5006437;28;20057;-49
2023/01/31 08:34:16;;;;;;;8.27;5.38;;;;;;;;;;5005956;28;20176;-47
2023/01/31 08:36:42;;;;;;;6.05;4.50;;;;;;;;;;5002785;28;20407;-47
2023/01/31 08:39:08;;;;;;;4.38;2.70;;;;;;;;;;5004373;28;20034;-49
2023/01/31 08:41:35;;;;;;;5.00;2.97;;;;;;;;;;5000000;28;20106;-53
2023/01/31 08:44:02;;;;;;;4.50;2.67;;;;;;;;;;5004297;28;20053;-46
2023/01/31 08:46:31;;;;;;;4.00;2.40;;;;;;;;;;5005949;28;20069;-49
2023/01/31 08:48:57;;;;;;;3.03;2.40;;;;;;;;;;5004394;28;20181;-50
2023/01/31 08:51:22;;;;;;;3.58;2.90;;;;;;;;;;5003982;28;20064;-48
2023/01/31 08:53:48;;;;;;;2.95;2.28;;;;;;;;;;5003752;28;20058;-47
2023/01/31 08:56:14;;;;;;;4.03;2.55;;;;;;;;;;5006448;28;20033;-49
2023/01/31 08:58:42;;;;;;;3.33;2.30;;;;;;;;;;5005456;28;20411;-51
2023/01/31 09:01:13;;;;;;;2.38;2.17;;;;;;;;;;5006779;28;20034;-48
2023/01/31 09:03:39;;;;;;;4.43;2.70;;;;;;;;;;5004266;28;20153;-48
2023/01/31 09:06:09;;;;;;;2.92;2.60;;;;;;;;;;5004249;28;20038;-55
2023/01/31 09:08:34;;;;;;;5.53;2.28;;;;;;;;;;5002296;28;20506;-54
2023/01/31 09:10:59;;;;;;;3.67;2.30;;;;;;;;;;5005782;28;20045;-55
2023/01/31 09:13:27;;;;;;;2.45;2.17;;;;;;;;;;5000285;28;20112;-56
2023/01/31 09:16:08;;;;;;;6.07;2.58;;;;;;;;;;5004847;28;20482;-46
2023/01/31 09:18:35;;;;;;;2.38;2.17;;;;;;;;;;5004426;28;20533;-52
2023/01/31 09:21:10;;;;;;;4.13;2.55;;;;;;;;;;5004192;28;20034;-50
2023/01/31 09:23:36;;;;;;;4.05;2.28;;;;;;;;;;5003215;28;20077;-54
2023/01/31 09:26:02;;;;;;;4.35;2.45;;;;;;;;;;5000580;28;20026;-46
2023/01/31 09:28:27;;;;;;;3.63;2.30;;;;;;;;;;5006189;28;20052;-48
2023/01/31 09:30:53;;;;;;;5.22;2.38;;;;;;;;;;5005802;28;20121;-46
2023/01/31 09:33:20;;;;;;;5.60;2.25;;;;;;;;;;5003667;28;20406;-48
2023/01/31 09:36:00;;;;;;;2.72;2.50;;;;;;;;;;5004088;28;20044;-48
2023/01/31 09:38:26;;;;;;;2.80;2.38;;;;;;;;;;5003878;28;20084;-48
2023/01/31 09:40:53;;;;;;;4.68;2.60;;;;;;;;;;5005459;28;20475;-50
2023/01/31 09:43:23;;;;;;;2.50;2.30;;;;;;;;;;5004110;28;20572;-52
2023/01/31 09:45:49;;;;;;;2.47;2.28;;;;;;;;;;5005525;28;20130;-46
2023/01/31 09:48:21;;;;;;;3.88;1.92;;;;;;;;;;5003629;28;20073;-48
2023/01/31 09:50:54;;;;;;;5.93;2.45;;;;;;;;;;5002960;28;20664;-50
2023/01/31 09:53:21;;;;;;;5.20;2.60;;;;;;;;;;5004723;28;20053;-48
2023/01/31 09:56:02;;;;;;;4.60;2.30;;;;;;;;;;5005552;28;20131;-49
2023/01/31 09:58:46;;;;;;;2.65;2.10;;;;;;;;;;5000188;28;20747;-52
2023/01/31 10:01:19;;;;;;;2.47;2.25;;;;;;;;;;5004212;28;20095;-50
2023/01/31 10:03:57;;;;;;;4.50;2.33;;;;;;;;;;5009120;28;20073;-52
2023/01/31 10:06:27;;;;;;;2.35;2.00;;;;;;;;;;5007365;28;20033;-51
2023/01/31 10:09:01;;;;;;;3.47;1.83;;;;;;;;;;5005437;28;20046;-52
2023/01/31 10:11:32;;;;;;;2.83;2.05;;;;;;;;;;5006234;28;20045;-51
2023/01/31 10:14:16;;;;;;;2.60;1.80;;;;;;;;;;5007202;28;20046;-51
2023/01/31 10:16:51;;;;;;;1.80;1.70;;;;;;;;;;5004838;28;20061;-50
2023/01/31 10:19:24;;;;;;;3.30;2.20;;;;;;;;;;5005876;28;20137;-52
2023/01/31 10:22:05;;;;;;;3.95;1.98;;;;;;;;;;5007422;28;20495;-49
2023/01/31 10:24:38;;;;;;;2.03;1.85;;;;;;;;;;5022104;28;20041;-50
2023/01/31 10:27:12;;;;;;;3.97;2.40;;;;;;;;;;5005899;28;20030;-49
2023/01/31 10:29:42;;;;;;;2.42;2.00;;;;;;;;;;5007999;28;20034;-48
2023/01/31 10:32:36;;;;;;;3.05;2.03;;;;;;;;;;5009554;28;20033;-50
2023/01/31 10:35:13;;;;;;;2.13;1.98;;;;;;;;;;5003136;28;20089;-48
2023/01/31 10:37:49;;;;;;;4.13;1.92;;;;;;;;;;5005805;28;20038;-48
2023/01/31 10:40:31;;;;;;;3.17;2.08;;;;;;;;;;5007093;28;20488;-47
2023/01/31 10:43:02;;;;;;;2.60;2.03;;;;;;;;;;5005545;28;20050;-49
2023/01/31 10:45:32;;;;;;;2.30;1.60;;;;;;;;;;5007136;28;20038;-47
2023/01/31 10:48:25;;;;;;;2.15;1.92;;;;;;;;;;5008624;28;20508;-43
2023/01/31 10:51:25;;;;;;;3.63;1.80;;;;;;;;;;5006444;28;20069;-49
2023/01/31 10:53:54;;;;;;;5.63;2.67;;;;;;;;;;5007852;28;20108;-49
2023/01/31 10:56:35;;;;;;;5.90;1.98;;;;;;;;;;5006839;28;20025;-50
2023/01/31 10:59:06;;;;;;;3.88;1.80;;;;;;;;;;5008486;28;20038;-50
2023/01/31 11:01:34;;;;;;;2.90;2.00;;;;;;;;;;5007557;28;20030;-50
2023/01/31 11:04:20;;;;;;;4.70;1.60;;;;;;;;;;5007245;28;20568;-49
2023/01/31 11:06:45;;;;;;;3.20;1.63;;;;;;;;;;5007951;28;20569;-49
2023/01/31 11:09:13;;;;;;;2.03;1.48;;;;;;;;;;5004519;28;20070;-49
2023/01/31 11:11:56;;;;;;;1.73;1.55;;;;;;;;;;5005257;28;20495;-48
2023/01/31 11:14:22;;;;;;;2.42;1.45;;;;;;;;;;5004343;28;20064;-50
2023/01/31 11:16:49;;;;;;;4.35;1.73;;;;;;;;;;5007190;28;20034;-50
2023/01/31 11:19:25;;;;;;;4.78;1.48;;;;;;;;;;5004434;28;20070;-51
2023/01/31 11:21:52;;;;;;;1.50;1.40;;;;;;;;;;5005978;28;20040;-52
2023/01/31 11:24:28;;;;;;;3.58;1.58;;;;;;;;;;5004324;28;20494;-51
2023/01/31 11:27:04;;;;;;;3.85;1.50;;;;;;;;;;5007646;28;20909;-50
2023/01/31 11:29:39;;;;;;;2.22;1.55;;;;;;;;;;5006569;28;20038;-48
2023/01/31 11:32:17;;;;;;;2.70;1.52;;;;;;;;;;5005626;28;20112;-51
2023/01/31 11:34:54;;;;;;;1.65;1.33;;;;;;;;;;5005450;28;20511;-47
2023/01/31 11:37:19;;;;;;;3.38;1.75;;;;;;;;;;5005986;28;20022;-51
2023/01/31 11:39:58;;;;;;;2.22;1.70;;;;;;;;;;5006063;28;20026;-47
2023/01/31 11:42:24;;;;;;;3.63;1.77;;;;;;;;;;5001815;28;20032;-52
2023/01/31 11:45:02;;;;;;;3.13;1.90;;;;;;;;;;5003830;28;20495;-46
2023/01/31 11:47:42;;;;;;;1.63;1.45;;;;;;;;;;5006196;28;20478;-47
2023/01/31 11:50:19;;;;;;;1.92;1.48;;;;;;;;;;5005619;28;20033;-49
2023/01/31 11:52:45;;;;;;;2.83;2.30;;;;;;;;;;5020130;28;20046;-46
2023/01/31 11:55:16;;;;;;;2.25;1.67;;;;;;;;;;5005163;28;20053;-53
2023/01/31 11:57:42;;;;;;;7.40;1.90;;;;;;;;;;5002439;28;20054;-48
2023/01/31 12:00:25;;;;;;;1.70;1.52;;;;;;;;;;5004603;28;20033;-47
2023/01/31 12:03:07;;;;;;;2.70;1.80;;;;;;;;;;5001876;28;20053;-47
2023/01/31 12:05:38;;;;;;;;;;;;;;;;;;5006146;28;20467;-48
2023/01/31 12:08:04;;;;;;;1.65;1.40;;;;;;;;;;5004923;28;19930;-48
2023/01/31 12:10:49;;;;;;;3.95;1.70;;;;;;;;;;5006597;28;20080;-51
2023/01/31 12:13:18;;;;;;;2.10;1.60;;;;;;;;;;5005890;28;20054;-49
2023/01/31 12:16:03;;;;;;;2.67;1.90;;;;;;;;;;5006674;28;20033;-50
2023/01/31 12:18:37;;;;;;;2.08;1.50;;;;;;;;;;5004346;28;20048;-49
2023/01/31 12:21:06;;;;;;;4.15;1.83;;;;;;;;;;5005299;28;20436;-51
2023/01/31 12:24:01;;;;;;;9.98;1.80;;;;;;;;;;5005547;28;20042;-47
2023/01/31 12:26:51;;;;;;;2.78;1.77;;;;;;;;;;5002830;28;20068;-47
2023/01/31 12:29:47;;;;;;;3.35;1.30;;;;;;;;;;5006645;28;20042;-48
2023/01/31 12:32:21;;;;;;;4.95;1.35;;;;;;;;;;5005266;28;20037;-46
2023/01/31 12:35:17;;;;;;;1.80;1.70;;;;;;;;;;5004344;28;20630;-52
2023/01/31 12:38:04;;;;;;;3.17;1.60;;;;;;;;;;4998856;28;20061;-49
2023/01/31 12:41:01;;;;;;;1.40;1.30;;;;;;;;;;5001546;28;20145;-47
2023/01/31 12:43:45;;;;;;;2.15;1.45;;;;;;;;;;4984771;28;20089;-50
2023/01/31 12:46:32;;;;;;;2.30;1.70;;;;;;;;;;4985517;28;20038;-51
2023/01/31 12:49:00;;;;;;;1.60;1.40;;;;;;;;;;4984960;28;20074;-53
2023/01/31 12:51:31;;;;;;;1.45;1.10;;;;;;;;;;4971087;28;20030;-48
2023/01/31 12:54:21;;;;;;;1.50;1.40;;;;;;;;;;4980962;28;20908;-47
2023/01/31 12:57:05;;;;;;;2.60;1.40;;;;;;;;;;4985313;28;20422;-51
2023/01/31 12:59:31;;;;;;;1.38;1.35;;;;;;;;;;4985155;28;20057;-51
2023/01/31 13:02:27;;;;;;;2.33;1.67;;;;;;;;;;4985592;28;20030;-50
2023/01/31 13:05:14;;;;;;;1.73;1.35;;;;;;;;;;4985072;28;20062;-48
2023/01/31 13:07:55;;;;;;;1.45;1.00;;;;;;;;;;4981099;28;20447;-52
2023/01/31 13:10:24;;;;;;;3.53;1.35;;;;;;;;;;4985309;28;20168;-53
2023/01/31 13:12:49;;;;;;;1.50;1.40;;;;;;;;;;4979904;28;20090;-51
2023/01/31 13:15:38;;;;;;;2.25;1.85;;;;;;;;;;4966090;28;20046;-46
2023/01/31 13:18:05;;;;;;;2.00;1.80;;;;;;;;;;4972625;28;20046;-48
2023/01/31 13:20:54;;;;;;;9.70;2.40;;;;;;;;;;4984797;28;20023;-53
2023/01/31 13:23:32;;;;;;;3.38;1.65;;;;;;;;;;4980878;28;20054;-51
2023/01/31 13:26:13;;;;;;;2.53;2.33;;;;;;;;;;4985337;28;20065;-50
2023/01/31 13:28:59;;;;;;;6.68;2.92;;;;;;;;;;4986160;28;20088;-50
2023/01/31 13:31:28;;;;;;;3.08;2.70;;;;;;;;;;4981462;28;20047;-49
2023/01/31 13:33:53;;;;;;;1.67;1.58;;;;;;;;;;4985398;28;20042;-51
2023/01/31 13:36:29;;;;;;;5.07;3.65;;;;;;;;;;4985392;28;20471;-49
2023/01/31 13:38:56;;;;;;;3.03;2.47;;;;;;;;;;4987991;28;20105;-51
2023/01/31 13:41:27;;;;;;;1.30;1.20;;;;;;;;;;4986950;28;20081;-49
2023/01/31 13:43:55;;;;;;;1.80;1.70;;;;;;;;;;4987466;28;20038;-47
2023/01/31 13:46:35;;;;;;;3.72;1.52;;;;;;;;;;4988150;28;20274;-50
2023/01/31 13:49:15;;;;;;;1.70;1.60;;;;;;;;;;4988364;28;20050;-49
2023/01/31 13:51:55;;;;;;;1.95;1.55;;;;;;;;;;4986786;28;20033;-50
2023/01/31 13:54:30;;;;;;;5.30;2.85;;;;;;;;;;4987699;28;20061;-50
2023/01/31 13:56:58;;;;;;;1.63;1.45;;;;;;;;;;4991471;28;20494;-48
2023/01/31 13:59:27;;;;;;;7.25;1.75;;;;;;;;;;4986487;28;20065;-50
2023/01/31 14:01:55;;;;;;;2.75;2.55;;;;;;;;;;4988580;28;20030;-51
2023/01/31 14:04:24;;;;;;;2.70;2.50;;;;;;;;;;4988967;28;20380;-51
2023/01/31 14:06:55;;;;;;;2.40;1.80;;;;;;;;;;4987094;28;20030;-51
2023/01/31 14:09:35;;;;;;;1.70;1.60;;;;;;;;;;4987613;28;20054;-50
2023/01/31 14:12:23;;;;;;;3.10;1.42;;;;;;;;;;4986611;28;20034;-51
2023/01/31 14:14:51;;;;;;;2.20;1.55;;;;;;;;;;5008704;28;20052;-51
2023/01/31 14:17:25;;;;;;;2.67;1.70;;;;;;;;;;5005889;28;21260;-51
2023/01/31 14:19:56;;;;;;;1.55;1.40;;;;;;;;;;4988411;28;20030;-50
2023/01/31 14:22:36;;;;;;;3.13;1.77;;;;;;;;;;4985957;28;20381;-52
2023/01/31 14:25:09;;;;;;;3.15;1.95;;;;;;;;;;4990764;28;20026;-51
2023/01/31 14:27:56;;;;;;;2.70;2.10;;;;;;;;;;4986504;28;20050;-52
2023/01/31 14:30:46;;;;;;;4.00;2.20;;;;;;;;;;4988108;28;20023;-51
2023/01/31 14:33:11;;;;;;;4.07;1.80;;;;;;;;;;4996534;28;20038;-47
2023/01/31 14:36:34;;;;;;;1.83;1.70;;;;;;;;;;5008693;28;20025;-51
2023/01/31 14:39:15;;;;;;;;;;;;;;;;;;5001456;28;20399;-53
2023/01/31 14:42:14;;;;;;;2.83;2.30;;;;;;;;;;5004558;28;20322;-46
2023/01/31 14:44:52;;;;;;;7.88;3.30;;;;;;;;;;5004357;28;20049;-51
2023/01/31 14:47:26;;;;;;;3.88;2.00;;;;;;;;;;5005300;28;20117;-49
2023/01/31 14:50:22;;;;;;;11.38;2.33;;;;;;;;;;4996185;28;20042;-47
2023/01/31 14:53:00;;;;;;;4.07;1.70;;;;;;;;;;5001810;28;20046;-47
2023/01/31 14:55:45;;;;;;;7.80;2.20;;;;;;;;;;5002742;28;20026;-47
2023/01/31 14:58:19;;;;;;;3.30;2.15;;;;;;;;;;5005622;28;20045;-46
2023/01/31 15:00:55;;;;;;;8.05;1.83;;;;;;;;;;5003142;28;20087;-51
2023/01/31 15:03:24;;;;;;;1.85;1.70;;;;;;;;;;4996125;28;20043;-47
2023/01/31 15:05:55;;;;;;;4.30;2.55;;;;;;;;;;5004132;28;20034;-49
2023/01/31 15:08:21;;;;;;;3.58;2.30;;;;;;;;;;5004274;28;20043;-50
2023/01/31 15:10:57;;;;;;;3.67;1.90;;;;;;;;;;5005108;28;20053;-48
2023/01/31 15:13:36;;;;;;;3.35;2.17;;;;;;;;;;5003708;28;20044;-50
2023/01/31 15:16:05;;;;;;;3.92;2.20;;;;;;;;;;5003927;28;20034;-49
2023/01/31 15:18:30;;;;;;;3.38;2.05;;;;;;;;;;5005345;28;20038;-48
2023/01/31 15:21:00;;;;;;;2.05;1.85;;;;;;;;;;5005768;28;20491;-49